sensor_id;sensor_type;location;lat;lon;timestamp;pressure;altitude;pressure_sealevel;temperature;humidity
47897;BME280;39629;51.400;5.494;2024-01-25T00:02:19;102773.50;;;8.14;85.10
47897;BME280;39629;51.400;5.494;2024-01-25T00:07:22;102781.38;;;7.99;85.75
47897;BME280;39629;51.400;5.494;2024-01-25T00:12:24;102771.72;;;7.98;85.73
47897;BME280;39629;51.400;5.494;2024-01-25T00:17:26;102774.53;;;7.87;86.25
47897;BME280;39629;51.400;5.494;2024-01-25T00:22:29;102785.84;;;7.72;86.59
47897;BME280;39629;51.400;5.494;2024-01-25T00:27:31;102772.31;;;7.57;87.61
47897;BME280;39629;51.400;5.494;2024-01-25T00:32:33;102786.66;;;7.50;87.53
47897;BME280;39629;51.400;5.494;2024-01-25T00:37:37;102779.94;;;7.48;88.35
47897;BME280;39629;51.400;5.494;2024-01-25T00:42:42;102775.91;;;7.29;89.25
47897;BME280;39629;51.400;5.494;2024-01-25T00:47:44;102783.47;;;7.15;88.94
47897;BME280;39629;51.400;5.494;2024-01-25T00:52:48;102779.50;;;7.01;89.28
47897;BME280;39629;51.400;5.494;2024-01-25T00:57:51;102780.00;;;6.98;90.17
47897;BME280;39629;51.400;5.494;2024-01-25T01:02:53;102793.78;;;6.89;90.32
47897;BME280;39629;51.400;5.494;2024-01-25T01:07:57;102783.84;;;6.56;91.78
47897;BME280;39629;51.400;5.494;2024-01-25T01:12:59;102783.66;;;6.58;91.80
47897;BME280;39629;51.400;5.494;2024-01-25T01:18:00;102796.06;;;6.52;92.33
47897;BME280;39629;51.400;5.494;2024-01-25T01:23:07;102800.28;;;6.37;92.97
47897;BME280;39629;51.400;5.494;2024-01-25T01:28:09;102806.84;;;6.29;92.59
47897;BME280;39629;51.400;5.494;2024-01-25T01:33:10;102809.00;;;6.44;92.40
47897;BME280;39629;51.400;5.494;2024-01-25T01:38:14;102800.97;;;6.15;92.85
47897;BME280;39629;51.400;5.494;2024-01-25T01:43:19;102796.50;;;6.04;94.26
47897;BME280;39629;51.400;5.494;2024-01-25T01:48:21;102805.25;;;6.16;94.34
47897;BME280;39629;51.400;5.494;2024-01-25T01:53:24;102808.63;;;6.12;94.48
47897;BME280;39629;51.400;5.494;2024-01-25T01:58:27;102807.88;;;6.00;94.27
47897;BME280;39629;51.400;5.494;2024-01-25T02:03:29;102820.16;;;6.01;95.16
47897;BME280;39629;51.400;5.494;2024-01-25T02:08:33;102823.88;;;6.00;94.15
47897;BME280;39629;51.400;5.494;2024-01-25T02:13:35;102832.72;;;5.88;94.67
47897;BME280;39629;51.400;5.494;2024-01-25T02:18:37;102842.84;;;5.75;94.42
47897;BME280;39629;51.400;5.494;2024-01-25T02:23:41;102863.69;;;5.78;93.82
47897;BME280;39629;51.400;5.494;2024-01-25T02:28:42;102861.38;;;5.58;95.55
47897;BME280;39629;51.400;5.494;2024-01-25T02:33:44;102874.00;;;5.51;95.81
47897;BME280;39629;51.400;5.494;2024-01-25T02:38:47;102876.44;;;5.29;96.48
47897;BME280;39629;51.400;5.494;2024-01-25T02:43:49;102878.50;;;5.27;95.96
47897;BME280;39629;51.400;5.494;2024-01-25T02:48:51;102873.84;;;5.11;97.00
47897;BME280;39629;51.400;5.494;2024-01-25T02:53:54;102870.00;;;4.95;95.53
47897;BME280;39629;51.400;5.494;2024-01-25T02:58:56;102857.25;;;4.85;96.83
47897;BME280;39629;51.400;5.494;2024-01-25T03:03:58;102865.41;;;5.02;96.18
47897;BME280;39629;51.400;5.494;2024-01-25T03:09:01;102865.91;;;4.81;97.08
47897;BME280;39629;51.400;5.494;2024-01-25T03:14:05;102871.41;;;4.68;97.60
47897;BME280;39629;51.400;5.494;2024-01-25T03:19:06;102872.84;;;4.82;97.48
47897;BME280;39629;51.400;5.494;2024-01-25T03:24:10;102861.00;;;4.66;96.55
47897;BME280;39629;51.400;5.494;2024-01-25T03:29:12;102862.66;;;4.49;97.30
47897;BME280;39629;51.400;5.494;2024-01-25T03:34:14;102872.19;;;4.56;96.65
47897;BME280;39629;51.400;5.494;2024-01-25T03:39:17;102871.81;;;4.23;96.65
47897;BME280;39629;51.400;5.494;2024-01-25T03:44:19;102874.94;;;4.50;97.36
47897;BME280;39629;51.400;5.494;2024-01-25T03:49:21;102877.72;;;4.25;97.62
47897;BME280;39629;51.400;5.494;2024-01-25T03:54:25;102873.94;;;4.14;97.72
47897;BME280;39629;51.400;5.494;2024-01-25T03:59:27;102877.13;;;4.05;98.75
47897;BME280;39629;51.400;5.494;2024-01-25T04:04:29;102882.56;;;3.91;98.37
47897;BME280;39629;51.400;5.494;2024-01-25T04:09:32;102873.25;;;3.64;98.05
47897;BME280;39629;51.400;5.494;2024-01-25T04:14:34;102887.50;;;3.69;98.13
47897;BME280;39629;51.400;5.494;2024-01-25T04:19:36;102880.50;;;3.32;98.26
47897;BME280;39629;51.400;5.494;2024-01-25T04:24:39;102880.53;;;3.50;99.44
47897;BME280;39629;51.400;5.494;2024-01-25T04:29:41;102878.44;;;3.34;97.91
47897;BME280;39629;51.400;5.494;2024-01-25T04:34:43;102872.25;;;3.15;97.73
47897;BME280;39629;51.400;5.494;2024-01-25T04:39:49;102878.31;;;3.22;98.64
47897;BME280;39629;51.400;5.494;2024-01-25T04:44:50;102861.59;;;2.90;97.81
47897;BME280;39629;51.400;5.494;2024-01-25T04:49:52;102876.88;;;2.95;98.26
47897;BME280;39629;51.400;5.494;2024-01-25T04:54:55;102877.72;;;2.89;98.06
47897;BME280;39629;51.400;5.494;2024-01-25T04:59:57;102867.03;;;2.70;98.44
47897;BME280;39629;51.400;5.494;2024-01-25T05:04:59;102879.09;;;2.66;97.61
47897;BME280;39629;51.400;5.494;2024-01-25T05:10:02;102867.19;;;2.44;98.31
47897;BME280;39629;51.400;5.494;2024-01-25T05:15:05;102861.28;;;2.42;98.62
47897;BME280;39629;51.400;5.494;2024-01-25T05:20:08;102858.97;;;2.52;98.38
47897;BME280;39629;51.400;5.494;2024-01-25T05:25:11;102844.72;;;2.47;99.25
47897;BME280;39629;51.400;5.494;2024-01-25T05:30:13;102860.94;;;2.25;98.57
47897;BME280;39629;51.400;5.494;2024-01-25T05:35:15;102865.22;;;2.20;98.53
47897;BME280;39629;51.400;5.494;2024-01-25T05:40:19;102856.38;;;1.88;98.07
47897;BME280;39629;51.400;5.494;2024-01-25T05:45:21;102864.50;;;1.93;98.74
47897;BME280;39629;51.400;5.494;2024-01-25T05:50:23;102878.34;;;1.95;98.56
47897;BME280;39629;51.400;5.494;2024-01-25T05:55:26;102885.69;;;1.99;99.62
47897;BME280;39629;51.400;5.494;2024-01-25T06:00:28;102888.25;;;2.19;99.12
47897;BME280;39629;51.400;5.494;2024-01-25T06:05:30;102883.69;;;1.82;98.25
47897;BME280;39629;51.400;5.494;2024-01-25T06:10:33;102881.81;;;1.95;99.10
47897;BME280;39629;51.400;5.494;2024-01-25T06:15:35;102880.78;;;2.03;99.36
47897;BME280;39629;51.400;5.494;2024-01-25T06:20:37;102880.03;;;1.69;99.45
47897;BME280;39629;51.400;5.494;2024-01-25T06:25:40;102888.22;;;1.61;98.87
47897;BME280;39629;51.400;5.494;2024-01-25T06:30:42;102903.50;;;1.59;99.39
47897;BME280;39629;51.400;5.494;2024-01-25T06:35:44;102909.41;;;1.55;99.31
47897;BME280;39629;51.400;5.494;2024-01-25T06:40:47;102894.31;;;1.62;99.51
47897;BME280;39629;51.400;5.494;2024-01-25T06:45:49;102901.66;;;1.47;99.69
47897;BME280;39629;51.400;5.494;2024-01-25T06:50:50;102899.81;;;1.34;99.22
47897;BME280;39629;51.400;5.494;2024-01-25T06:55:54;102897.16;;;1.34;99.15
47897;BME280;39629;51.400;5.494;2024-01-25T07:00:56;102916.72;;;1.33;99.85
47897;BME280;39629;51.400;5.494;2024-01-25T07:05:58;102907.72;;;1.07;99.26
47897;BME280;39629;51.400;5.494;2024-01-25T07:11:01;102899.56;;;0.89;99.29
47897;BME280;39629;51.400;5.494;2024-01-25T07:16:03;102905.72;;;1.16;99.73
47897;BME280;39629;51.400;5.494;2024-01-25T07:21:06;102921.97;;;1.06;99.57
47897;BME280;39629;51.400;5.494;2024-01-25T07:26:16;102905.88;;;0.95;99.32
47897;BME280;39629;51.400;5.494;2024-01-25T07:31:18;102908.75;;;1.13;99.66
47897;BME280;39629;51.400;5.494;2024-01-25T07:36:19;102913.84;;;1.14;99.77
47897;BME280;39629;51.400;5.494;2024-01-25T07:41:23;102924.44;;;1.14;99.03
47897;BME280;39629;51.400;5.494;2024-01-25T07:46:24;102917.56;;;1.40;99.55
47897;BME280;39629;51.400;5.494;2024-01-25T07:51:26;102933.66;;;1.58;99.65
47897;BME280;39629;51.400;5.494;2024-01-25T07:56:30;102919.16;;;1.74;99.74
47897;BME280;39629;51.400;5.494;2024-01-25T08:01:32;102919.16;;;1.87;99.61
47897;BME280;39629;51.400;5.494;2024-01-25T08:06:34;102926.66;;;1.97;100.00
47897;BME280;39629;51.400;5.494;2024-01-25T08:11:37;102935.91;;;2.52;100.00
47897;BME280;39629;51.400;5.494;2024-01-25T08:16:39;102942.66;;;2.41;99.48
47897;BME280;39629;51.400;5.494;2024-01-25T08:21:41;102943.44;;;2.55;100.00
47897;BME280;39629;51.400;5.494;2024-01-25T08:26:44;102949.25;;;2.77;100.00
47897;BME280;39629;51.400;5.494;2024-01-25T08:31:46;102930.34;;;2.98;99.99
47897;BME280;39629;51.400;5.494;2024-01-25T08:36:48;102903.03;;;3.48;100.00
47897;BME280;39629;51.400;5.494;2024-01-25T08:41:51;102916.66;;;3.76;99.97
47897;BME280;39629;51.400;5.494;2024-01-25T08:46:53;102930.38;;;3.98;100.00
47897;BME280;39629;51.400;5.494;2024-01-25T08:51:55;102954.78;;;4.13;100.00
47897;BME280;39629;51.400;5.494;2024-01-25T08:56:58;102941.69;;;4.30;100.00
47897;BME280;39629;51.400;5.494;2024-01-25T09:02:00;102928.16;;;4.50;100.00
47897;BME280;39629;51.400;5.494;2024-01-25T09:07:02;102953.56;;;4.64;100.00
47897;BME280;39629;51.400;5.494;2024-01-25T09:12:06;102952.34;;;4.78;100.00
47897;BME280;39629;51.400;5.494;2024-01-25T09:17:09;102952.19;;;4.91;100.00
47897;BME280;39629;51.400;5.494;2024-01-25T09:22:11;102953.41;;;5.07;100.00
47897;BME280;39629;51.400;5.494;2024-01-25T09:27:14;102944.16;;;5.10;100.00
47897;BME280;39629;51.400;5.494;2024-01-25T09:32:16;102953.13;;;5.27;99.96
47897;BME280;39629;51.400;5.494;2024-01-25T09:37:21;102945.72;;;5.41;99.77
47897;BME280;39629;51.400;5.494;2024-01-25T09:42:26;102949.56;;;5.56;99.62
47897;BME280;39629;51.400;5.494;2024-01-25T09:47:27;102946.72;;;5.81;99.02
47897;BME280;39629;51.400;5.494;2024-01-25T09:52:29;102963.06;;;5.85;99.48
47897;BME280;39629;51.400;5.494;2024-01-25T09:57:35;102965.03;;;6.01;98.22
47897;BME280;39629;51.400;5.494;2024-01-25T10:02:37;102962.22;;;6.19;98.69
47897;BME280;39629;51.400;5.494;2024-01-25T10:07:41;102938.84;;;6.38;97.81
47897;BME280;39629;51.400;5.494;2024-01-25T10:12:44;102941.41;;;6.45;97.50
47897;BME280;39629;51.400;5.494;2024-01-25T10:17:46;102925.16;;;6.58;96.69
47897;BME280;39629;51.400;5.494;2024-01-25T10:22:48;102918.53;;;6.61;97.04
47897;BME280;39629;51.400;5.494;2024-01-25T10:27:51;102923.13;;;6.94;97.00
47897;BME280;39629;51.400;5.494;2024-01-25T10:32:53;102911.03;;;6.74;95.93
47897;BME280;39629;51.400;5.494;2024-01-25T10:37:56;102912.28;;;7.00;95.75
47897;BME280;39629;51.400;5.494;2024-01-25T10:42:59;102898.88;;;7.12;94.87
47897;BME280;39629;51.400;5.494;2024-01-25T10:48:01;102890.53;;;7.25;94.00
47897;BME280;39629;51.400;5.494;2024-01-25T10:53:04;102878.38;;;7.34;94.00
47897;BME280;39629;51.400;5.494;2024-01-25T10:58:08;102867.63;;;7.46;93.09
47897;BME280;39629;51.400;5.494;2024-01-25T11:03:10;102878.47;;;7.56;92.34
47897;BME280;39629;51.400;5.494;2024-01-25T11:08:17;102885.75;;;7.61;92.55
47897;BME280;39629;51.400;5.494;2024-01-25T11:13:26;102880.59;;;7.76;92.28
47897;BME280;39629;51.400;5.494;2024-01-25T11:18:29;102882.50;;;7.59;91.78
47897;BME280;39629;51.400;5.494;2024-01-25T11:23:31;102863.97;;;7.52;90.94
47897;BME280;39629;51.400;5.494;2024-01-25T11:28:34;102851.31;;;7.47;91.16
47897;BME280;39629;51.400;5.494;2024-01-25T11:33:37;102849.22;;;7.49;90.54
47897;BME280;39629;51.400;5.494;2024-01-25T11:38:39;102846.78;;;7.48;90.91
47897;BME280;39629;51.400;5.494;2024-01-25T11:43:42;102844.13;;;7.48;90.83
47897;BME280;39629;51.400;5.494;2024-01-25T11:48:44;102820.88;;;7.70;89.60
47897;BME280;39629;51.400;5.494;2024-01-25T11:53:45;102839.50;;;7.82;90.03
47897;BME280;39629;51.400;5.494;2024-01-25T11:58:49;102822.75;;;7.70;89.70
47897;BME280;39629;51.400;5.494;2024-01-25T12:03:51;102848.06;;;8.06;88.87
47897;BME280;39629;51.400;5.494;2024-01-25T12:08:54;102835.00;;;7.88;88.69
47897;BME280;39629;51.400;5.494;2024-01-25T12:13:58;102818.38;;;8.07;89.14
47897;BME280;39629;51.400;5.494;2024-01-25T12:19:00;102805.03;;;8.34;87.77
47897;BME280;39629;51.400;5.494;2024-01-25T12:24:02;102772.63;;;8.31;87.38
47897;BME280;39629;51.400;5.494;2024-01-25T12:29:05;102769.31;;;8.51;87.51
47897;BME280;39629;51.400;5.494;2024-01-25T12:34:12;102765.03;;;8.49;86.75
47897;BME280;39629;51.400;5.494;2024-01-25T12:39:14;102784.31;;;8.52;86.15
47897;BME280;39629;51.400;5.494;2024-01-25T12:44:17;102776.16;;;8.36;86.38
47897;BME280;39629;51.400;5.494;2024-01-25T12:49:19;102777.94;;;8.58;86.31
47897;BME280;39629;51.400;5.494;2024-01-25T12:54:23;102766.03;;;8.16;87.00
47897;BME280;39629;51.400;5.494;2024-01-25T12:59:27;102762.75;;;8.36;86.93
47897;BME280;39629;51.400;5.494;2024-01-25T13:04:28;102747.09;;;8.23;86.62
47897;BME280;39629;51.400;5.494;2024-01-25T13:09:30;102746.88;;;8.30;87.52
47897;BME280;39629;51.400;5.494;2024-01-25T13:14:35;102728.47;;;8.33;87.81
47897;BME280;39629;51.400;5.494;2024-01-25T13:19:37;102721.06;;;8.18;88.37
47897;BME280;39629;51.400;5.494;2024-01-25T13:24:39;102728.59;;;8.22;88.05
47897;BME280;39629;51.400;5.494;2024-01-25T13:29:42;102726.47;;;8.24;88.01
47897;BME280;39629;51.400;5.494;2024-01-25T13:34:43;102721.84;;;8.14;88.23
47897;BME280;39629;51.400;5.494;2024-01-25T13:39:45;102721.31;;;8.17;88.55
47897;BME280;39629;51.400;5.494;2024-01-25T13:44:48;102709.81;;;8.16;88.90
47897;BME280;39629;51.400;5.494;2024-01-25T13:49:50;102698.25;;;8.11;89.01
47897;BME280;39629;51.400;5.494;2024-01-25T13:54:52;102695.16;;;8.24;89.01
47897;BME280;39629;51.400;5.494;2024-01-25T13:59:56;102689.09;;;8.34;88.98
47897;BME280;39629;51.400;5.494;2024-01-25T14:04:58;102665.00;;;8.34;89.09
47897;BME280;39629;51.400;5.494;2024-01-25T14:10:00;102666.19;;;8.16;91.22
47897;BME280;39629;51.400;5.494;2024-01-25T14:15:04;102659.97;;;8.10;93.10
47897;BME280;39629;51.400;5.494;2024-01-25T14:20:07;102656.94;;;8.02;94.29
47897;BME280;39629;51.400;5.494;2024-01-25T14:25:09;102653.94;;;7.93;95.17
47897;BME280;39629;51.400;5.494;2024-01-25T14:30:14;102648.31;;;7.95;95.26
47897;BME280;39629;51.400;5.494;2024-01-25T14:35:16;102642.69;;;7.91;96.20
47897;BME280;39629;51.400;5.494;2024-01-25T14:40:19;102643.28;;;7.98;96.13
47897;BME280;39629;51.400;5.494;2024-01-25T14:45:22;102641.88;;;7.91;96.00
47897;BME280;39629;51.400;5.494;2024-01-25T14:50:24;102631.22;;;7.96;96.80
47897;BME280;39629;51.400;5.494;2024-01-25T14:55:25;102625.84;;;7.96;96.47
47897;BME280;39629;51.400;5.494;2024-01-25T15:00:28;102614.06;;;7.92;97.18
47897;BME280;39629;51.400;5.494;2024-01-25T15:05:30;102617.53;;;7.92;97.38
47897;BME280;39629;51.400;5.494;2024-01-25T15:10:32;102617.28;;;7.94;97.32
47897;BME280;39629;51.400;5.494;2024-01-25T15:15:35;102613.78;;;7.93;97.62
47897;BME280;39629;51.400;5.494;2024-01-25T15:20:37;102608.69;;;7.92;98.15
47897;BME280;39629;51.400;5.494;2024-01-25T15:25:39;102600.69;;;7.92;98.11
47897;BME280;39629;51.400;5.494;2024-01-25T15:30:42;102587.28;;;7.92;98.33
47897;BME280;39629;51.400;5.494;2024-01-25T15:35:44;102581.69;;;7.93;98.58
47897;BME280;39629;51.400;5.494;2024-01-25T15:40:46;102563.50;;;7.95;99.18
47897;BME280;39629;51.400;5.494;2024-01-25T15:45:49;102564.63;;;7.99;98.63
47897;BME280;39629;51.400;5.494;2024-01-25T15:50:51;102570.25;;;8.03;98.91
47897;BME280;39629;51.400;5.494;2024-01-25T15:55:53;102570.00;;;8.04;98.80
47897;BME280;39629;51.400;5.494;2024-01-25T16:00:56;102568.94;;;8.05;99.28
47897;BME280;39629;51.400;5.494;2024-01-25T16:05:58;102573.78;;;8.08;98.82
47897;BME280;39629;51.400;5.494;2024-01-25T16:10:59;102573.22;;;8.06;98.96
47897;BME280;39629;51.400;5.494;2024-01-25T16:16:04;102563.09;;;8.13;99.35
47897;BME280;39629;51.400;5.494;2024-01-25T16:21:06;102560.94;;;8.10;98.77
47897;BME280;39629;51.400;5.494;2024-01-25T16:26:08;102557.50;;;8.15;99.55
47897;BME280;39629;51.400;5.494;2024-01-25T16:31:11;102552.16;;;8.15;99.29
47897;BME280;39629;51.400;5.494;2024-01-25T16:36:13;102548.16;;;8.17;99.60
47897;BME280;39629;51.400;5.494;2024-01-25T16:41:15;102537.19;;;8.19;100.00
47897;BME280;39629;51.400;5.494;2024-01-25T16:46:18;102550.06;;;8.22;99.62
47897;BME280;39629;51.400;5.494;2024-01-25T16:51:20;102548.19;;;8.23;99.74
47897;BME280;39629;51.400;5.494;2024-01-25T16:56:22;102555.44;;;8.27;99.66
47897;BME280;39629;51.400;5.494;2024-01-25T17:01:25;102550.94;;;8.33;100.00
47897;BME280;39629;51.400;5.494;2024-01-25T17:06:27;102542.41;;;8.36;99.74
47897;BME280;39629;51.400;5.494;2024-01-25T17:11:29;102547.75;;;8.36;100.00
47897;BME280;39629;51.400;5.494;2024-01-25T17:16:33;102532.78;;;8.40;100.00
47897;BME280;39629;51.400;5.494;2024-01-25T17:21:35;102530.09;;;8.40;99.87
47897;BME280;39629;51.400;5.494;2024-01-25T17:26:37;102537.66;;;8.48;99.90
47897;BME280;39629;51.400;5.494;2024-01-25T17:31:40;102540.63;;;8.57;99.93
47897;BME280;39629;51.400;5.494;2024-01-25T17:36:42;102536.09;;;8.57;99.84
47897;BME280;39629;51.400;5.494;2024-01-25T17:41:44;102545.50;;;8.65;100.00
47897;BME280;39629;51.400;5.494;2024-01-25T17:46:47;102536.13;;;8.67;100.00
47897;BME280;39629;51.400;5.494;2024-01-25T17:51:49;102538.53;;;8.69;100.00
47897;BME280;39629;51.400;5.494;2024-01-25T17:56:51;102524.88;;;8.70;100.00
47897;BME280;39629;51.400;5.494;2024-01-25T18:01:54;102523.56;;;8.78;100.00
47897;BME280;39629;51.400;5.494;2024-01-25T18:06:56;102523.31;;;8.79;100.00
47897;BME280;39629;51.400;5.494;2024-01-25T18:11:59;102519.84;;;8.79;100.00
47897;BME280;39629;51.400;5.494;2024-01-25T18:17:02;102519.06;;;8.84;100.00
47897;BME280;39629;51.400;5.494;2024-01-25T18:22:05;102512.66;;;8.85;100.00
47897;BME280;39629;51.400;5.494;2024-01-25T18:27:07;102495.22;;;8.87;99.97
47897;BME280;39629;51.400;5.494;2024-01-25T18:32:10;102507.03;;;8.86;99.97
47897;BME280;39629;51.400;5.494;2024-01-25T18:37:12;102509.97;;;8.85;99.82
47897;BME280;39629;51.400;5.494;2024-01-25T18:42:14;102502.44;;;8.81;99.99
47897;BME280;39629;51.400;5.494;2024-01-25T18:47:17;102507.28;;;8.85;100.00
47897;BME280;39629;51.400;5.494;2024-01-25T18:52:20;102501.16;;;8.94;100.00
47897;BME280;39629;51.400;5.494;2024-01-25T18:57:23;102501.44;;;8.98;100.00
47897;BME280;39629;51.400;5.494;2024-01-25T19:02:27;102495.25;;;8.97;100.00
47897;BME280;39629;51.400;5.494;2024-01-25T19:07:29;102492.59;;;8.97;100.00
47897;BME280;39629;51.400;5.494;2024-01-25T19:12:31;102478.66;;;9.05;99.99
47897;BME280;39629;51.400;5.494;2024-01-25T19:17:35;102475.72;;;9.02;100.00
47897;BME280;39629;51.400;5.494;2024-01-25T19:22:37;102467.94;;;9.00;99.93
47897;BME280;39629;51.400;5.494;2024-01-25T19:27:39;102461.78;;;9.05;100.00
47897;BME280;39629;51.400;5.494;2024-01-25T19:32:43;102448.09;;;9.01;99.98
47897;BME280;39629;51.400;5.494;2024-01-25T19:37:46;102446.50;;;9.05;100.00
47897;BME280;39629;51.400;5.494;2024-01-25T19:42:48;102443.28;;;9.08;100.00
47897;BME280;39629;51.400;5.494;2024-01-25T19:47:52;102440.88;;;9.12;100.00
47897;BME280;39629;51.400;5.494;2024-01-25T19:52:54;102446.00;;;9.19;99.75
47897;BME280;39629;51.400;5.494;2024-01-25T19:57:56;102435.28;;;9.24;99.98
47897;BME280;39629;51.400;5.494;2024-01-25T20:03:00;102432.34;;;9.20;100.00
47897;BME280;39629;51.400;5.494;2024-01-25T20:08:03;102425.63;;;9.23;100.00
47897;BME280;39629;51.400;5.494;2024-01-25T20:13:05;102417.31;;;9.24;99.54
47897;BME280;39629;51.400;5.494;2024-01-25T20:18:08;102432.88;;;9.32;99.74
47897;BME280;39629;51.400;5.494;2024-01-25T20:23:10;102430.72;;;9.29;99.76
47897;BME280;39629;51.400;5.494;2024-01-25T20:28:11;102421.06;;;9.38;100.00
47897;BME280;39629;51.400;5.494;2024-01-25T20:33:15;102414.63;;;9.44;100.00
47897;BME280;39629;51.400;5.494;2024-01-25T20:38:16;102413.28;;;9.42;100.00
47897;BME280;39629;51.400;5.494;2024-01-25T20:43:18;102410.59;;;9.42;100.00
47897;BME280;39629;51.400;5.494;2024-01-25T20:48:21;102395.59;;;9.46;100.00
47897;BME280;39629;51.400;5.494;2024-01-25T20:53:24;102391.03;;;9.52;99.81
47897;BME280;39629;51.400;5.494;2024-01-25T20:58:26;102392.09;;;9.56;99.50
47897;BME280;39629;51.400;5.494;2024-01-25T21:03:30;102396.13;;;9.48;100.00
47897;BME280;39629;51.400;5.494;2024-01-25T21:08:33;102396.66;;;9.45;99.53
47897;BME280;39629;51.400;5.494;2024-01-25T21:13:35;102394.50;;;9.52;100.00
47897;BME280;39629;51.400;5.494;2024-01-25T21:18:39;102390.47;;;9.50;99.85
47897;BME280;39629;51.400;5.494;2024-01-25T21:23:41;102378.41;;;9.52;99.74
47897;BME280;39629;51.400;5.494;2024-01-25T21:28:43;102372.22;;;9.57;100.00
47897;BME280;39629;51.400;5.494;2024-01-25T21:33:47;102368.47;;;9.53;100.00
47897;BME280;39629;51.400;5.494;2024-01-25T21:38:49;102366.06;;;9.56;100.00
47897;BME280;39629;51.400;5.494;2024-01-25T21:43:51;102359.34;;;9.59;100.00
47897;BME280;39629;51.400;5.494;2024-01-25T21:48:55;102357.75;;;9.58;100.00
47897;BME280;39629;51.400;5.494;2024-01-25T21:53:56;102353.16;;;9.63;100.00
47897;BME280;39629;51.400;5.494;2024-01-25T21:58:58;102352.38;;;9.63;99.57
47897;BME280;39629;51.400;5.494;2024-01-25T22:04:01;102351.28;;;9.64;100.00
47897;BME280;39629;51.400;5.494;2024-01-25T22:09:03;102348.34;;;9.65;99.92
47897;BME280;39629;51.400;5.494;2024-01-25T22:14:05;102350.72;;;9.72;100.00
47897;BME280;39629;51.400;5.494;2024-01-25T22:19:08;102355.56;;;9.70;100.00
47897;BME280;39629;51.400;5.494;2024-01-25T22:24:10;102356.63;;;9.69;100.00
47897;BME280;39629;51.400;5.494;2024-01-25T22:29:12;102364.16;;;9.72;100.00
47897;BME280;39629;51.400;5.494;2024-01-25T22:34:15;102362.81;;;9.69;100.00
47897;BME280;39629;51.400;5.494;2024-01-25T22:39:17;102367.88;;;9.81;100.00
47897;BME280;39629;51.400;5.494;2024-01-25T22:44:19;102373.53;;;9.74;99.66
47897;BME280;39629;51.400;5.494;2024-01-25T22:49:22;102360.13;;;9.74;100.00
47897;BME280;39629;51.400;5.494;2024-01-25T22:54:24;102359.03;;;9.81;100.00
47897;BME280;39629;51.400;5.494;2024-01-25T22:59:25;102351.78;;;9.81;100.00
47897;BME280;39629;51.400;5.494;2024-01-25T23:04:28;102342.13;;;9.80;99.89
47897;BME280;39629;51.400;5.494;2024-01-25T23:09:30;102349.09;;;9.81;100.00
47897;BME280;39629;51.400;5.494;2024-01-25T23:14:32;102347.75;;;9.79;100.00
47897;BME280;39629;51.400;5.494;2024-01-25T23:19:35;102350.72;;;9.77;100.00
47897;BME280;39629;51.400;5.494;2024-01-25T23:24:37;102355.56;;;9.70;100.00
47897;BME280;39629;51.400;5.494;2024-01-25T23:29:39;102356.34;;;9.81;100.00
47897;BME280;39629;51.400;5.494;2024-01-25T23:34:43;102355.81;;;9.79;100.00
47897;BME280;39629;51.400;5.494;2024-01-25T23:39:44;102351.50;;;9.83;100.00
47897;BME280;39629;51.400;5.494;2024-01-25T23:44:47;102347.47;;;9.80;100.00
47897;BME280;39629;51.400;5.494;2024-01-25T23:49:51;102343.69;;;9.86;100.00
47897;BME280;39629;51.400;5.494;2024-01-25T23:54:53;102343.69;;;9.86;100.00
47897;BME280;39629;51.400;5.494;2024-01-25T23:59:55;102344.22;;;9.88;100.00
